LGL86MN LFMN-ELLX
Flight info
| Callsign | LGL86MN |
|---|---|
| Flight time | 1h 21m |
| Altitude | 24000 |
| Route | IRMAR DCT KINES DCT VANAS DCT MOBLO DCT UBIMA DCT GILIR DCT PENDU DCT IXILU DCT EPL G21 GIVOR |
| Aircraft | DH8D/M-SDE2E3FGRY/H |
Departure
| Time | 2026-05-01 08:49 |
|---|---|
| Airport | Nice-Côte d'Azur Airport (LFMN) |
Arrival
| Time | 2026-05-01 10:11 |
|---|---|
| Airport | Luxembourg-Findel International Airport (ELLX) |
| Time | Latitude | Longitude | Altitude | Speed | Heading |
|---|---|---|---|---|---|
| 2026-05-01 08:12 | 43.66254 | 7.21108 | 29 ft | 0 kts | 45° |
| 2026-05-01 08:41 | 43.66254 | 7.21109 | 29 ft | 0 kts | 45° |
| 2026-05-01 08:42 | 43.66257 | 7.21111 | 29 ft | 1 kts | 46° |
| 2026-05-01 08:42 | 43.66271 | 7.21132 | 29 ft | 4 kts | 47° |
| 2026-05-01 08:42 | 43.66315 | 7.21193 | 29 ft | 10 kts | 49° |
| 2026-05-01 08:42 | 43.66340 | 7.21320 | 29 ft | 12 kts | 88° |
| 2026-05-01 08:43 | 43.66292 | 7.21354 | 29 ft | 10 kts | 216° |
| 2026-05-01 08:43 | 43.66219 | 7.21256 | 29 ft | 18 kts | 224° |
| 2026-05-01 08:43 | 43.66127 | 7.21133 | 29 ft | 17 kts | 225° |
| 2026-05-01 08:43 | 43.66028 | 7.21055 | 29 ft | 16 kts | 171° |
| 2026-05-01 08:44 | 43.65936 | 7.21102 | 29 ft | 12 kts | 182° |
| 2026-05-01 08:44 | 43.65866 | 7.21028 | 29 ft | 13 kts | 224° |
| 2026-05-01 08:44 | 43.65801 | 7.20939 | 29 ft | 13 kts | 225° |
| 2026-05-01 08:44 | 43.65718 | 7.20825 | 29 ft | 19 kts | 225° |
| 2026-05-01 08:45 | 43.65623 | 7.20694 | 29 ft | 18 kts | 224° |
| 2026-05-01 08:45 | 43.65532 | 7.20570 | 29 ft | 18 kts | 224° |
| 2026-05-01 08:45 | 43.65434 | 7.20435 | 29 ft | 20 kts | 225° |
| 2026-05-01 08:45 | 43.65345 | 7.20311 | 29 ft | 14 kts | 221° |
| 2026-05-01 08:46 | 43.65268 | 7.20313 | 29 ft | 8 kts | 140° |
| 2026-05-01 08:46 | 43.65233 | 7.20358 | 29 ft | 6 kts | 136° |
| 2026-05-01 08:46 | 43.65182 | 7.20430 | 29 ft | 13 kts | 134° |
| 2026-05-01 08:46 | 43.65107 | 7.20481 | 29 ft | 13 kts | 183° |
| 2026-05-01 08:47 | 43.65023 | 7.20407 | 28 ft | 16 kts | 225° |
| 2026-05-01 08:47 | 43.64938 | 7.20290 | 28 ft | 17 kts | 225° |
| 2026-05-01 08:47 | 43.64852 | 7.20174 | 28 ft | 16 kts | 224° |
| 2026-05-01 08:47 | 43.64758 | 7.20162 | 28 ft | 13 kts | 134° |
| 2026-05-01 08:48 | 43.64702 | 7.20242 | 28 ft | 7 kts | 132° |
| 2026-05-01 08:48 | 43.64690 | 7.20270 | 28 ft | 1 kts | 65° |
| 2026-05-01 08:48 | 43.64705 | 7.20294 | 28 ft | 3 kts | 45° |
| 2026-05-01 08:48 | 43.64722 | 7.20318 | 28 ft | 3 kts | 46° |
| 2026-05-01 08:49 | 43.64767 | 7.20380 | 28 ft | 25 kts | 45° |
| 2026-05-01 08:49 | 43.65115 | 7.20857 | 29 ft | 111 kts | 45° |
| 2026-05-01 08:49 | 43.65786 | 7.21775 | 186 ft | 146 kts | 50° |
| 2026-05-01 08:49 | 43.66452 | 7.22836 | 742 ft | 149 kts | 65° |
| 2026-05-01 08:50 | 43.66413 | 7.24186 | 1339 ft | 148 kts | 116° |
| 2026-05-01 08:50 | 43.65797 | 7.25277 | 2015 ft | 148 kts | 128° |
| 2026-05-01 08:50 | 43.65096 | 7.26349 | 2559 ft | 153 kts | 127° |
| 2026-05-01 08:50 | 43.64391 | 7.27420 | 3154 ft | 155 kts | 127° |
| 2026-05-01 08:51 | 43.63654 | 7.28522 | 3730 ft | 158 kts | 128° |
| 2026-05-01 08:51 | 43.62873 | 7.29687 | 4097 ft | 178 kts | 129° |
| 2026-05-01 08:51 | 43.62007 | 7.30963 | 4604 ft | 186 kts | 130° |
| 2026-05-01 08:51 | 43.60914 | 7.31920 | 5090 ft | 197 kts | 168° |
| 2026-05-01 08:52 | 43.59564 | 7.31498 | 5540 ft | 205 kts | 209° |
| 2026-05-01 08:52 | 43.58368 | 7.30456 | 6114 ft | 207 kts | 211° |
| 2026-05-01 08:52 | 43.57153 | 7.29394 | 6685 ft | 208 kts | 211° |
| 2026-05-01 08:52 | 43.55913 | 7.28314 | 7098 ft | 220 kts | 212° |
| 2026-05-01 08:53 | 43.54745 | 7.26899 | 7422 ft | 230 kts | 240° |
| 2026-05-01 08:53 | 43.54472 | 7.24784 | 7853 ft | 228 kts | 285° |
| 2026-05-01 08:53 | 43.55215 | 7.22910 | 8353 ft | 224 kts | 310° |
| 2026-05-01 08:53 | 43.56188 | 7.21227 | 8928 ft | 225 kts | 310° |
| 2026-05-01 08:54 | 43.57153 | 7.19555 | 9488 ft | 226 kts | 310° |
| 2026-05-01 08:54 | 43.58132 | 7.17855 | 10043 ft | 227 kts | 311° |
| 2026-05-01 08:54 | 43.59109 | 7.16153 | 10543 ft | 231 kts | 310° |
| 2026-05-01 08:54 | 43.60152 | 7.14336 | 10593 ft | 256 kts | 310° |
| 2026-05-01 08:55 | 43.61463 | 7.12649 | 10837 ft | 262 kts | 333° |
| 2026-05-01 08:55 | 43.63179 | 7.11765 | 11273 ft | 264 kts | 344° |
| 2026-05-01 08:55 | 43.64942 | 7.11006 | 11696 ft | 268 kts | 344° |
| 2026-05-01 08:55 | 43.66711 | 7.10243 | 12137 ft | 269 kts | 345° |
| 2026-05-01 08:56 | 43.68505 | 7.09467 | 12546 ft | 272 kts | 345° |
| 2026-05-01 08:56 | 43.70329 | 7.08673 | 12939 ft | 274 kts | 345° |
| 2026-05-01 08:56 | 43.72142 | 7.07880 | 13318 ft | 277 kts | 345° |
| 2026-05-01 08:56 | 43.73999 | 7.07064 | 13700 ft | 280 kts | 345° |
| 2026-05-01 08:57 | 43.75853 | 7.06247 | 14105 ft | 281 kts | 345° |
| 2026-05-01 08:57 | 43.77700 | 7.05431 | 14506 ft | 281 kts | 345° |
| 2026-05-01 08:57 | 43.79568 | 7.04604 | 14875 ft | 283 kts | 345° |
| 2026-05-01 08:57 | 43.81439 | 7.03775 | 15222 ft | 284 kts | 345° |
| 2026-05-01 08:58 | 43.83323 | 7.02939 | 15586 ft | 285 kts | 346° |
| 2026-05-01 08:58 | 43.85206 | 7.02103 | 15890 ft | 287 kts | 345° |
| 2026-05-01 08:58 | 43.87122 | 7.01251 | 16199 ft | 289 kts | 346° |
| 2026-05-01 08:58 | 43.89030 | 7.00402 | 16543 ft | 289 kts | 346° |
| 2026-05-01 08:59 | 43.90950 | 6.99547 | 16851 ft | 291 kts | 346° |
| 2026-05-01 08:59 | 43.92871 | 6.98691 | 17124 ft | 293 kts | 346° |
| 2026-05-01 08:59 | 43.94816 | 6.97825 | 17419 ft | 294 kts | 346° |
| 2026-05-01 08:59 | 43.96762 | 6.96956 | 17743 ft | 294 kts | 346° |
| 2026-05-01 09:00 | 43.98719 | 6.96081 | 17955 ft | 296 kts | 346° |
| 2026-05-01 09:00 | 44.00669 | 6.95210 | 18173 ft | 298 kts | 346° |
| 2026-05-01 09:00 | 44.02650 | 6.94324 | 18437 ft | 298 kts | 346° |
| 2026-05-01 09:00 | 44.04628 | 6.93437 | 18703 ft | 298 kts | 346° |
| 2026-05-01 09:01 | 44.06593 | 6.92556 | 18936 ft | 299 kts | 346° |
| 2026-05-01 09:01 | 44.08577 | 6.91668 | 19101 ft | 302 kts | 346° |
| 2026-05-01 09:01 | 44.10605 | 6.90759 | 19288 ft | 304 kts | 346° |
| 2026-05-01 09:01 | 44.12608 | 6.89860 | 19514 ft | 304 kts | 346° |
| 2026-05-01 09:02 | 44.14642 | 6.89037 | 19689 ft | 303 kts | 352° |
| 2026-05-01 09:02 | 44.16708 | 6.88646 | 19874 ft | 301 kts | 358° |
| 2026-05-01 09:02 | 44.18787 | 6.88346 | 20022 ft | 302 kts | 357° |
| 2026-05-01 09:02 | 44.20883 | 6.88044 | 20111 ft | 305 kts | 357° |
| 2026-05-01 09:03 | 44.22997 | 6.87736 | 20229 ft | 305 kts | 357° |
| 2026-05-01 09:03 | 44.25120 | 6.87423 | 20332 ft | 307 kts | 357° |
| 2026-05-01 09:03 | 44.27233 | 6.87109 | 20464 ft | 307 kts | 357° |
| 2026-05-01 09:03 | 44.29347 | 6.86794 | 20571 ft | 308 kts | 357° |
| 2026-05-01 09:04 | 44.31490 | 6.86473 | 20702 ft | 308 kts | 357° |
| 2026-05-01 09:04 | 44.33606 | 6.86153 | 20782 ft | 309 kts | 357° |
| 2026-05-01 09:04 | 44.35733 | 6.85832 | 20905 ft | 308 kts | 357° |
| 2026-05-01 09:04 | 44.37888 | 6.85506 | 20981 ft | 309 kts | 357° |
| 2026-05-01 09:05 | 44.40010 | 6.85185 | 21099 ft | 309 kts | 357° |
| 2026-05-01 09:05 | 44.42154 | 6.84860 | 21192 ft | 310 kts | 357° |
| 2026-05-01 09:05 | 44.44291 | 6.84534 | 21544 ft | 302 kts | 356° |
| 2026-05-01 09:05 | 44.46364 | 6.84218 | 21747 ft | 301 kts | 357° |
| 2026-05-01 09:06 | 44.48433 | 6.83904 | 21876 ft | 300 kts | 357° |
| 2026-05-01 09:06 | 44.50496 | 6.83590 | 21972 ft | 301 kts | 357° |
| 2026-05-01 09:06 | 44.52599 | 6.83270 | 22071 ft | 302 kts | 357° |
| 2026-05-01 09:06 | 44.54689 | 6.82952 | 22173 ft | 302 kts | 357° |
| 2026-05-01 09:07 | 44.56762 | 6.82636 | 22228 ft | 303 kts | 357° |
| 2026-05-01 09:07 | 44.58850 | 6.82316 | 22527 ft | 296 kts | 356° |
| 2026-05-01 09:07 | 44.60847 | 6.82008 | 22796 ft | 292 kts | 357° |
| 2026-05-01 09:07 | 44.62873 | 6.81699 | 22924 ft | 292 kts | 357° |
| 2026-05-01 09:08 | 44.64891 | 6.81391 | 23020 ft | 294 kts | 357° |
| 2026-05-01 09:08 | 44.66922 | 6.81079 | 23338 ft | 284 kts | 357° |
| 2026-05-01 09:08 | 44.68769 | 6.80789 | 24018 ft | 264 kts | 357° |
| 2026-05-01 09:08 | 44.70563 | 6.80514 | 24220 ft | 261 kts | 357° |
| 2026-05-01 09:09 | 44.72378 | 6.80239 | 24285 ft | 263 kts | 357° |
| 2026-05-01 09:09 | 44.74215 | 6.79961 | 24306 ft | 267 kts | 357° |
| 2026-05-01 09:09 | 44.76082 | 6.79678 | 24316 ft | 271 kts | 357° |
| 2026-05-01 09:09 | 44.77963 | 6.79391 | 24319 ft | 275 kts | 357° |
| 2026-05-01 09:10 | 44.79893 | 6.79096 | 24312 ft | 280 kts | 357° |
| 2026-05-01 09:10 | 44.81821 | 6.78877 | 24306 ft | 283 kts | 0° |
| 2026-05-01 09:10 | 44.83804 | 6.78760 | 24298 ft | 287 kts | 1° |
| 2026-05-01 09:10 | 44.85833 | 6.78644 | 24292 ft | 291 kts | 0° |
| 2026-05-01 09:11 | 44.87843 | 6.78521 | 24286 ft | 295 kts | 1° |
| 2026-05-01 09:11 | 44.89922 | 6.78390 | 24286 ft | 299 kts | 0° |
| 2026-05-01 09:11 | 44.91996 | 6.78257 | 24288 ft | 302 kts | 0° |
| 2026-05-01 09:11 | 44.94106 | 6.78120 | 24292 ft | 305 kts | 1° |
| 2026-05-01 09:12 | 44.96215 | 6.77983 | 24295 ft | 308 kts | 0° |
| 2026-05-01 09:12 | 44.98367 | 6.77842 | 24299 ft | 310 kts | 0° |
| 2026-05-01 09:12 | 45.00545 | 6.77699 | 24303 ft | 313 kts | 1° |
| 2026-05-01 09:12 | 45.02723 | 6.77555 | 24304 ft | 315 kts | 0° |
| 2026-05-01 09:13 | 45.04917 | 6.77410 | 24303 ft | 316 kts | 0° |
| 2026-05-01 09:13 | 45.07098 | 6.77266 | 24301 ft | 318 kts | 0° |
| 2026-05-01 09:13 | 45.09307 | 6.77118 | 24300 ft | 319 kts | 0° |
| 2026-05-01 09:13 | 45.11535 | 6.76970 | 24299 ft | 320 kts | 0° |
| 2026-05-01 09:14 | 45.13764 | 6.76821 | 24297 ft | 321 kts | 0° |
| 2026-05-01 09:14 | 45.16008 | 6.76672 | 24296 ft | 322 kts | 0° |
| 2026-05-01 09:14 | 45.18248 | 6.76522 | 24292 ft | 323 kts | 0° |
| 2026-05-01 09:14 | 45.20497 | 6.76372 | 24292 ft | 324 kts | 0° |
| 2026-05-01 09:15 | 45.22746 | 6.76222 | 24293 ft | 324 kts | 0° |
| 2026-05-01 09:15 | 45.24988 | 6.76072 | 24299 ft | 325 kts | 0° |
| 2026-05-01 09:15 | 45.27240 | 6.75921 | 24299 ft | 325 kts | 0° |
| 2026-05-01 09:15 | 45.29511 | 6.75769 | 24292 ft | 326 kts | 0° |
| 2026-05-01 09:16 | 45.31768 | 6.75618 | 24295 ft | 326 kts | 0° |
| 2026-05-01 09:16 | 45.34016 | 6.75467 | 24300 ft | 326 kts | 0° |
| 2026-05-01 09:16 | 45.36301 | 6.75314 | 24306 ft | 326 kts | 0° |
| 2026-05-01 09:17 | 45.40826 | 6.75010 | 24310 ft | 325 kts | 0° |
| 2026-05-01 09:17 | 45.43066 | 6.74859 | 24311 ft | 326 kts | 0° |
| 2026-05-01 09:17 | 45.47617 | 6.74553 | 24321 ft | 326 kts | 0° |
| 2026-05-01 09:18 | 45.49861 | 6.74402 | 24321 ft | 326 kts | 0° |
| 2026-05-01 09:18 | 45.54384 | 6.74097 | 24317 ft | 327 kts | 0° |
| 2026-05-01 09:19 | 45.58929 | 6.73790 | 24322 ft | 327 kts | 0° |
| 2026-05-01 09:19 | 45.61205 | 6.73636 | 24321 ft | 327 kts | 0° |
| 2026-05-01 09:19 | 45.63462 | 6.73483 | 24319 ft | 326 kts | 0° |
| 2026-05-01 09:20 | 45.68005 | 6.73175 | 24315 ft | 327 kts | 0° |
| 2026-05-01 09:20 | 45.72528 | 6.72868 | 24312 ft | 328 kts | 0° |
| 2026-05-01 09:21 | 45.77082 | 6.72559 | 24314 ft | 328 kts | 0° |
| 2026-05-01 09:21 | 45.79348 | 6.72404 | 24313 ft | 328 kts | 0° |
| 2026-05-01 09:21 | 45.83912 | 6.72093 | 24316 ft | 328 kts | 0° |
| 2026-05-01 09:22 | 45.88473 | 6.71784 | 24313 ft | 328 kts | 0° |
| 2026-05-01 09:22 | 45.93005 | 6.71477 | 24319 ft | 328 kts | 0° |
| 2026-05-01 09:23 | 45.95315 | 6.71320 | 24318 ft | 329 kts | 0° |
| 2026-05-01 09:23 | 45.99869 | 6.71010 | 24322 ft | 329 kts | 0° |
| 2026-05-01 09:24 | 46.04425 | 6.70699 | 24318 ft | 328 kts | 0° |
| 2026-05-01 09:24 | 46.06700 | 6.70544 | 24326 ft | 328 kts | 0° |
| 2026-05-01 09:24 | 46.11265 | 6.70231 | 24327 ft | 327 kts | 0° |
| 2026-05-01 09:25 | 46.15718 | 6.68738 | 24313 ft | 331 kts | 344° |
| 2026-05-01 09:25 | 46.20081 | 6.66584 | 24322 ft | 331 kts | 344° |
| 2026-05-01 09:26 | 46.22265 | 6.65510 | 24320 ft | 332 kts | 344° |
| 2026-05-01 09:26 | 46.26607 | 6.63381 | 24313 ft | 332 kts | 344° |
| 2026-05-01 09:26 | 46.28817 | 6.62299 | 24313 ft | 333 kts | 344° |
| 2026-05-01 09:27 | 46.33199 | 6.60156 | 24306 ft | 334 kts | 344° |
| 2026-05-01 09:27 | 46.35422 | 6.59069 | 24304 ft | 335 kts | 344° |
| 2026-05-01 09:27 | 46.37612 | 6.57997 | 24297 ft | 335 kts | 344° |
| 2026-05-01 09:28 | 46.39830 | 6.56911 | 24288 ft | 336 kts | 344° |
| 2026-05-01 09:28 | 46.42033 | 6.55832 | 24289 ft | 337 kts | 344° |
| 2026-05-01 09:28 | 46.44256 | 6.54742 | 24286 ft | 337 kts | 344° |
| 2026-05-01 09:28 | 46.46468 | 6.53657 | 24281 ft | 338 kts | 344° |
| 2026-05-01 09:29 | 46.50922 | 6.51470 | 24266 ft | 339 kts | 344° |
| 2026-05-01 09:29 | 46.53153 | 6.50373 | 24266 ft | 339 kts | 344° |
| 2026-05-01 09:30 | 46.57641 | 6.48165 | 24265 ft | 340 kts | 344° |
| 2026-05-01 09:30 | 46.59891 | 6.47056 | 24272 ft | 340 kts | 344° |
| 2026-05-01 09:30 | 46.64359 | 6.44851 | 24276 ft | 341 kts | 344° |
| 2026-05-01 09:31 | 46.66617 | 6.43735 | 24273 ft | 341 kts | 344° |
| 2026-05-01 09:31 | 46.68843 | 6.42634 | 24269 ft | 342 kts | 344° |
| 2026-05-01 09:31 | 46.73367 | 6.40394 | 24269 ft | 343 kts | 344° |
| 2026-05-01 09:32 | 46.75636 | 6.39268 | 24269 ft | 343 kts | 344° |
| 2026-05-01 09:32 | 46.80159 | 6.37022 | 24270 ft | 344 kts | 344° |
| 2026-05-01 09:32 | 46.82423 | 6.35896 | 24269 ft | 344 kts | 344° |
| 2026-05-01 09:33 | 46.84675 | 6.34776 | 24260 ft | 344 kts | 343° |
| 2026-05-01 09:33 | 46.86952 | 6.33642 | 24260 ft | 344 kts | 343° |
| 2026-05-01 09:33 | 46.91496 | 6.31375 | 24259 ft | 344 kts | 343° |
| 2026-05-01 09:34 | 46.93740 | 6.30255 | 24255 ft | 344 kts | 343° |
| 2026-05-01 09:34 | 46.96006 | 6.29122 | 24253 ft | 344 kts | 343° |
| 2026-05-01 09:34 | 47.00554 | 6.26846 | 24255 ft | 345 kts | 343° |
| 2026-05-01 09:35 | 47.02813 | 6.25714 | 24251 ft | 345 kts | 343° |
| 2026-05-01 09:35 | 47.07343 | 6.23268 | 24256 ft | 347 kts | 337° |
| 2026-05-01 09:35 | 47.09518 | 6.21718 | 24250 ft | 348 kts | 335° |
| 2026-05-01 09:36 | 47.11674 | 6.20152 | 24245 ft | 348 kts | 335° |
| 2026-05-01 09:36 | 47.13856 | 6.18568 | 24243 ft | 348 kts | 335° |
| 2026-05-01 09:36 | 47.16013 | 6.17003 | 24242 ft | 348 kts | 335° |
| 2026-05-01 09:36 | 47.18192 | 6.15423 | 24246 ft | 347 kts | 335° |
| 2026-05-01 09:37 | 47.20347 | 6.13861 | 24243 ft | 347 kts | 335° |
| 2026-05-01 09:37 | 47.24682 | 6.10716 | 24246 ft | 348 kts | 335° |
| 2026-05-01 09:37 | 47.26846 | 6.09157 | 24246 ft | 348 kts | 337° |
| 2026-05-01 09:38 | 47.31495 | 6.08498 | 24249 ft | 338 kts | 9° |
| 2026-05-01 09:38 | 47.33839 | 6.08952 | 24248 ft | 339 kts | 10° |
| 2026-05-01 09:38 | 47.36158 | 6.09427 | 24252 ft | 339 kts | 11° |
| 2026-05-01 09:39 | 47.40855 | 6.10429 | 24249 ft | 340 kts | 11° |
| 2026-05-01 09:39 | 47.43172 | 6.10933 | 24247 ft | 340 kts | 11° |
| 2026-05-01 09:39 | 47.45535 | 6.11453 | 24248 ft | 340 kts | 11° |
| 2026-05-01 09:40 | 47.47860 | 6.11968 | 24253 ft | 340 kts | 11° |
| 2026-05-01 09:40 | 47.52540 | 6.13013 | 24254 ft | 341 kts | 11° |
| 2026-05-01 09:40 | 47.54895 | 6.13541 | 24250 ft | 341 kts | 11° |
| 2026-05-01 09:41 | 47.57229 | 6.14067 | 24252 ft | 341 kts | 11° |
| 2026-05-01 09:41 | 47.61894 | 6.15120 | 24254 ft | 341 kts | 11° |
| 2026-05-01 09:41 | 47.64255 | 6.15655 | 24254 ft | 341 kts | 11° |
| 2026-05-01 09:42 | 47.66594 | 6.16185 | 24257 ft | 342 kts | 11° |
| 2026-05-01 09:42 | 47.68951 | 6.16720 | 24258 ft | 342 kts | 11° |
| 2026-05-01 09:42 | 47.73655 | 6.17790 | 24260 ft | 342 kts | 11° |
| 2026-05-01 09:43 | 47.78359 | 6.18862 | 24265 ft | 343 kts | 11° |
| 2026-05-01 09:43 | 47.80733 | 6.19404 | 24265 ft | 343 kts | 11° |
| 2026-05-01 09:43 | 47.83069 | 6.19938 | 24263 ft | 343 kts | 11° |
| 2026-05-01 09:44 | 47.87805 | 6.21022 | 24261 ft | 343 kts | 11° |
| 2026-05-01 09:44 | 47.90165 | 6.21563 | 24262 ft | 343 kts | 11° |
| 2026-05-01 09:44 | 47.92521 | 6.22102 | 24261 ft | 343 kts | 11° |
| 2026-05-01 09:45 | 47.94865 | 6.22641 | 24259 ft | 344 kts | 11° |
| 2026-05-01 09:45 | 47.99588 | 6.23726 | 24256 ft | 344 kts | 11° |
| 2026-05-01 09:45 | 48.01955 | 6.24271 | 24258 ft | 344 kts | 11° |
| 2026-05-01 09:46 | 48.04333 | 6.24819 | 24259 ft | 343 kts | 11° |
| 2026-05-01 09:46 | 48.06674 | 6.25359 | 24260 ft | 343 kts | 11° |
| 2026-05-01 09:46 | 48.09055 | 6.25909 | 24258 ft | 343 kts | 11° |
| 2026-05-01 09:46 | 48.11324 | 6.26433 | 24257 ft | 343 kts | 11° |
| 2026-05-01 09:47 | 48.13724 | 6.26989 | 24258 ft | 342 kts | 11° |
| 2026-05-01 09:47 | 48.16094 | 6.27537 | 24262 ft | 342 kts | 11° |
| 2026-05-01 09:47 | 48.18449 | 6.28083 | 24264 ft | 342 kts | 11° |
| 2026-05-01 09:47 | 48.20800 | 6.28628 | 24262 ft | 342 kts | 11° |
| 2026-05-01 09:48 | 48.23134 | 6.29170 | 24258 ft | 343 kts | 11° |
| 2026-05-01 09:48 | 48.25505 | 6.29721 | 24258 ft | 343 kts | 11° |
| 2026-05-01 09:48 | 48.27844 | 6.30265 | 24260 ft | 343 kts | 11° |
| 2026-05-01 09:48 | 48.30223 | 6.30818 | 24258 ft | 343 kts | 11° |
| 2026-05-01 09:49 | 48.32573 | 6.31366 | 24257 ft | 343 kts | 11° |
| 2026-05-01 09:49 | 48.34935 | 6.31916 | 24257 ft | 343 kts | 11° |
| 2026-05-01 09:49 | 48.37305 | 6.32470 | 24254 ft | 343 kts | 11° |
| 2026-05-01 09:49 | 48.39642 | 6.33016 | 24253 ft | 343 kts | 11° |
| 2026-05-01 09:50 | 48.42022 | 6.33573 | 24253 ft | 343 kts | 11° |
| 2026-05-01 09:50 | 48.44379 | 6.34124 | 24255 ft | 343 kts | 11° |
| 2026-05-01 09:50 | 48.46727 | 6.34674 | 24255 ft | 343 kts | 11° |
| 2026-05-01 09:50 | 48.49091 | 6.35229 | 24254 ft | 343 kts | 11° |
| 2026-05-01 09:51 | 48.51433 | 6.35778 | 24257 ft | 342 kts | 11° |
| 2026-05-01 09:51 | 48.53791 | 6.36332 | 24261 ft | 342 kts | 11° |
| 2026-05-01 09:51 | 48.56138 | 6.36884 | 24261 ft | 342 kts | 11° |
| 2026-05-01 09:51 | 48.58460 | 6.37431 | 24261 ft | 342 kts | 11° |
| 2026-05-01 09:52 | 48.60840 | 6.37991 | 24264 ft | 342 kts | 11° |
| 2026-05-01 09:52 | 48.63208 | 6.38551 | 23988 ft | 349 kts | 11° |
| 2026-05-01 09:52 | 48.65612 | 6.39137 | 23627 ft | 356 kts | 12° |
| 2026-05-01 09:52 | 48.68028 | 6.39994 | 23245 ft | 355 kts | 16° |
| 2026-05-01 09:53 | 48.70400 | 6.40952 | 22859 ft | 356 kts | 17° |
| 2026-05-01 09:53 | 48.72813 | 6.41931 | 22468 ft | 355 kts | 17° |
| 2026-05-01 09:53 | 48.75175 | 6.42889 | 22083 ft | 356 kts | 17° |
| 2026-05-01 09:53 | 48.77579 | 6.43863 | 21688 ft | 355 kts | 17° |
| 2026-05-01 09:54 | 48.79975 | 6.44833 | 21300 ft | 355 kts | 17° |
| 2026-05-01 09:54 | 48.82360 | 6.45799 | 20911 ft | 355 kts | 17° |
| 2026-05-01 09:54 | 48.84727 | 6.46758 | 20522 ft | 355 kts | 17° |
| 2026-05-01 09:54 | 48.87119 | 6.47727 | 20132 ft | 355 kts | 17° |
| 2026-05-01 09:55 | 48.89489 | 6.48688 | 19749 ft | 355 kts | 17° |
| 2026-05-01 09:55 | 48.91878 | 6.49658 | 19354 ft | 355 kts | 17° |
| 2026-05-01 09:55 | 48.94263 | 6.50627 | 18971 ft | 355 kts | 17° |
| 2026-05-01 09:55 | 48.96660 | 6.51601 | 18585 ft | 356 kts | 17° |
| 2026-05-01 09:56 | 48.99021 | 6.52562 | 18196 ft | 356 kts | 17° |
| 2026-05-01 09:56 | 49.01423 | 6.53540 | 17807 ft | 356 kts | 17° |
| 2026-05-01 09:56 | 49.03832 | 6.54522 | 17414 ft | 356 kts | 17° |
| 2026-05-01 09:56 | 49.06202 | 6.55488 | 17022 ft | 356 kts | 17° |
| 2026-05-01 09:57 | 49.08588 | 6.56462 | 16634 ft | 355 kts | 17° |
| 2026-05-01 09:57 | 49.10968 | 6.57434 | 16244 ft | 354 kts | 17° |
| 2026-05-01 09:57 | 49.13345 | 6.58406 | 15854 ft | 353 kts | 17° |
| 2026-05-01 09:57 | 49.15705 | 6.59371 | 15468 ft | 352 kts | 17° |
| 2026-05-01 09:58 | 49.18073 | 6.60342 | 15078 ft | 351 kts | 17° |
| 2026-05-01 09:58 | 49.20415 | 6.61300 | 14686 ft | 344 kts | 17° |
| 2026-05-01 09:58 | 49.22762 | 6.61857 | 14214 ft | 344 kts | 0° |
| 2026-05-01 09:58 | 49.25053 | 6.60972 | 13850 ft | 338 kts | 340° |
| 2026-05-01 09:59 | 49.27182 | 6.59552 | 13420 ft | 328 kts | 338° |
| 2026-05-01 09:59 | 49.29226 | 6.58148 | 13008 ft | 319 kts | 337° |
| 2026-05-01 09:59 | 49.31210 | 6.56775 | 12604 ft | 310 kts | 337° |
| 2026-05-01 09:59 | 49.33153 | 6.55431 | 12218 ft | 303 kts | 337° |
| 2026-05-01 10:00 | 49.35059 | 6.54114 | 11839 ft | 301 kts | 338° |
| 2026-05-01 10:00 | 49.36973 | 6.52792 | 11449 ft | 299 kts | 337° |
| 2026-05-01 10:00 | 49.38848 | 6.51497 | 11068 ft | 297 kts | 337° |
| 2026-05-01 10:00 | 49.40718 | 6.50202 | 10687 ft | 295 kts | 337° |
| 2026-05-01 10:01 | 49.42584 | 6.48911 | 10311 ft | 292 kts | 337° |
| 2026-05-01 10:01 | 49.44418 | 6.47640 | 9991 ft | 288 kts | 337° |
| 2026-05-01 10:01 | 49.46213 | 6.46367 | 9613 ft | 288 kts | 334° |
| 2026-05-01 10:01 | 49.47699 | 6.44334 | 9183 ft | 288 kts | 301° |
| 2026-05-01 10:02 | 49.48237 | 6.41453 | 8935 ft | 279 kts | 270° |
| 2026-05-01 10:02 | 49.48171 | 6.38559 | 8663 ft | 269 kts | 264° |
| 2026-05-01 10:02 | 49.48047 | 6.35744 | 8402 ft | 259 kts | 264° |
| 2026-05-01 10:02 | 49.47918 | 6.33029 | 8136 ft | 257 kts | 263° |
| 2026-05-01 10:03 | 49.47784 | 6.30297 | 7893 ft | 258 kts | 263° |
| 2026-05-01 10:03 | 49.47645 | 6.27540 | 7631 ft | 259 kts | 263° |
| 2026-05-01 10:03 | 49.47503 | 6.24787 | 7352 ft | 256 kts | 263° |
| 2026-05-01 10:03 | 49.47360 | 6.22078 | 7094 ft | 253 kts | 263° |
| 2026-05-01 10:04 | 49.47218 | 6.19409 | 6839 ft | 250 kts | 263° |
| 2026-05-01 10:04 | 49.47078 | 6.16776 | 6593 ft | 247 kts | 263° |
| 2026-05-01 10:04 | 49.46936 | 6.14153 | 6336 ft | 244 kts | 263° |
| 2026-05-01 10:04 | 49.46797 | 6.11594 | 6090 ft | 241 kts | 263° |
| 2026-05-01 10:05 | 49.46656 | 6.09024 | 5841 ft | 238 kts | 263° |
| 2026-05-01 10:05 | 49.46520 | 6.06539 | 5602 ft | 235 kts | 263° |
| 2026-05-01 10:05 | 49.46406 | 6.04025 | 5350 ft | 234 kts | 269° |
| 2026-05-01 10:05 | 49.46927 | 6.01706 | 5015 ft | 235 kts | 309° |
| 2026-05-01 10:06 | 49.48223 | 6.00316 | 4701 ft | 231 kts | 337° |
| 2026-05-01 10:06 | 49.49695 | 5.99302 | 4436 ft | 229 kts | 337° |
| 2026-05-01 10:06 | 49.51136 | 5.98275 | 4172 ft | 228 kts | 338° |
| 2026-05-01 10:06 | 49.52636 | 5.97856 | 3847 ft | 220 kts | 13° |
| 2026-05-01 10:07 | 49.53892 | 5.98969 | 3500 ft | 208 kts | 54° |
| 2026-05-01 10:07 | 49.54710 | 6.00794 | 3239 ft | 205 kts | 60° |
| 2026-05-01 10:07 | 49.55484 | 6.02563 | 3114 ft | 198 kts | 60° |
| 2026-05-01 10:07 | 49.56224 | 6.04275 | 3009 ft | 183 kts | 60° |
| 2026-05-01 10:08 | 49.57496 | 6.07371 | 2856 ft | 173 kts | 66° |
| 2026-05-01 10:08 | 49.58084 | 6.08989 | 2601 ft | 171 kts | 62° |
| 2026-05-01 10:08 | 49.58661 | 6.10490 | 2427 ft | 153 kts | 63° |
| 2026-05-01 10:09 | 49.59176 | 6.11861 | 2192 ft | 143 kts | 65° |
| 2026-05-01 10:09 | 49.59649 | 6.13140 | 1997 ft | 135 kts | 65° |
| 2026-05-01 10:09 | 49.60114 | 6.14395 | 1830 ft | 137 kts | 64° |
| 2026-05-01 10:09 | 49.60606 | 6.15605 | 1638 ft | 128 kts | 62° |
| 2026-05-01 10:10 | 49.61041 | 6.16796 | 1499 ft | 126 kts | 61° |
| 2026-05-01 10:10 | 49.61467 | 6.17972 | 1304 ft | 125 kts | 60° |
| 2026-05-01 10:10 | 49.62192 | 6.19936 | 1208 ft | 67 kts | 60° |
| 2026-05-01 10:11 | 49.62381 | 6.20443 | 1228 ft | 43 kts | 59° |
| 2026-05-01 10:11 | 49.62517 | 6.20808 | 1234 ft | 36 kts | 60° |
| 2026-05-01 10:11 | 49.62646 | 6.21079 | 1235 ft | 27 kts | 41° |
| 2026-05-01 10:11 | 49.62781 | 6.21216 | 1234 ft | 20 kts | 30° |
| 2026-05-01 10:12 | 49.62859 | 6.21287 | 1233 ft | 9 kts | 31° |
| 2026-05-01 10:12 | 49.62895 | 6.21320 | 1233 ft | 9 kts | 30° |
| 2026-05-01 10:12 | 49.62990 | 6.21405 | 1233 ft | 3 kts | 38° |
| 2026-05-01 10:13 | 49.63004 | 6.21427 | 1232 ft | 2 kts | 52° |
| 2026-05-01 10:13 | 49.63025 | 6.21474 | 1232 ft | 9 kts | 55° |
| 2026-05-01 10:13 | 49.63051 | 6.21559 | 1230 ft | 8 kts | 65° |
| 2026-05-01 10:14 | 49.63129 | 6.21618 | 1229 ft | 6 kts | 330° |
| 2026-05-01 10:14 | 49.63158 | 6.21591 | 1230 ft | 4 kts | 328° |
| 2026-05-01 10:14 | 49.63193 | 6.21560 | 1230 ft | 7 kts | 331° |
| 2026-05-01 10:14 | 49.63236 | 6.21523 | 1231 ft | 5 kts | 326° |
| 2026-05-01 10:15 | 49.63237 | 6.21489 | 1231 ft | 2 kts | 237° |
| 2026-05-01 10:15 | 49.63234 | 6.21481 | 1232 ft | 0 kts | 239° |
| 2026-05-01 10:15 | 49.63229 | 6.21467 | 1232 ft | 2 kts | 239° |
| 2026-05-01 10:15 | 49.63225 | 6.21457 | 1232 ft | 1 kts | 239° |
| 2026-05-01 10:16 | 49.63221 | 6.21445 | 1232 ft | 0 kts | 238° |